sensor_id;sensor_type;location;lat;lon;timestamp;pressure;altitude;pressure_sealevel;temperature;humidity
9423;BME280;65863;49.506;10.400;2023-03-26T00:02:28;97382.34;;;6.32;84.58
9423;BME280;65863;49.506;10.400;2023-03-26T00:05:12;97375.06;;;6.29;84.89
9423;BME280;65863;49.506;10.400;2023-03-26T00:07:57;97365.19;;;6.28;84.70
9423;BME280;65863;49.506;10.400;2023-03-26T00:10:42;97403.00;;;6.50;84.84
9423;BME280;65863;49.506;10.400;2023-03-26T00:13:27;97411.22;;;6.55;84.95
9423;BME280;65863;49.506;10.400;2023-03-26T00:16:12;97409.72;;;6.54;84.83
9423;BME280;65863;49.506;10.400;2023-03-26T00:18:57;97390.25;;;6.41;84.59
9423;BME280;65863;49.506;10.400;2023-03-26T00:21:43;97411.66;;;6.60;84.91
9423;BME280;65863;49.506;10.400;2023-03-26T00:24:27;97391.75;;;6.42;84.85
9423;BME280;65863;49.506;10.400;2023-03-26T00:27:12;97415.94;;;6.61;84.81
9423;BME280;65863;49.506;10.400;2023-03-26T00:29:57;97412.06;;;6.64;84.80
9423;BME280;65863;49.506;10.400;2023-03-26T00:32:43;97405.66;;;6.55;84.56
9423;BME280;65863;49.506;10.400;2023-03-26T00:35:27;97395.47;;;6.58;84.35
9423;BME280;65863;49.506;10.400;2023-03-26T00:38:15;97400.91;;;6.64;84.73
9423;BME280;65863;49.506;10.400;2023-03-26T00:41:00;97387.97;;;6.53;84.11
9423;BME280;65863;49.506;10.400;2023-03-26T00:43:50;97392.00;;;6.65;84.25
9423;BME280;65863;49.506;10.400;2023-03-26T00:46:35;97338.81;;;6.29;83.92
9423;BME280;65863;49.506;10.400;2023-03-26T00:49:20;97397.38;;;6.63;83.72
9423;BME280;65863;49.506;10.400;2023-03-26T00:52:04;97387.75;;;6.51;83.93
9423;BME280;65863;49.506;10.400;2023-03-26T00:54:51;97401.47;;;6.49;83.69
9423;BME280;65863;49.506;10.400;2023-03-26T00:57:35;97392.47;;;6.56;83.84
9423;BME280;65863;49.506;10.400;2023-03-26T01:00:28;97414.31;;;6.65;84.04
9423;BME280;65863;49.506;10.400;2023-03-26T01:03:16;97413.16;;;6.61;83.83
9423;BME280;65863;49.506;10.400;2023-03-26T01:08:50;97388.38;;;6.23;83.52
9423;BME280;65863;49.506;10.400;2023-03-26T01:11:37;97380.25;;;6.11;83.98
9423;BME280;65863;49.506;10.400;2023-03-26T01:14:24;97397.47;;;6.23;84.29
9423;BME280;65863;49.506;10.400;2023-03-26T01:17:10;97373.38;;;5.99;84.46
9423;BME280;65863;49.506;10.400;2023-03-26T01:22:53;97395.03;;;6.06;84.73
9423;BME280;65863;49.506;10.400;2023-03-26T01:25:43;97379.91;;;5.88;84.78
9423;BME280;65863;49.506;10.400;2023-03-26T01:28:33;97373.88;;;5.84;85.29
9423;BME280;65863;49.506;10.400;2023-03-26T01:31:29;97355.16;;;5.71;85.35
9423;BME280;65863;49.506;10.400;2023-03-26T01:34:39;97373.16;;;5.83;85.65
9423;BME280;65863;49.506;10.400;2023-03-26T01:37:42;97345.84;;;5.68;85.66
9423;BME280;65863;49.506;10.400;2023-03-26T01:40:34;97344.00;;;5.71;85.76
9423;BME280;65863;49.506;10.400;2023-03-26T01:43:33;97370.38;;;5.97;86.18
9423;BME280;65863;49.506;10.400;2023-03-26T01:46:21;97362.00;;;5.83;86.04
9423;BME280;65863;49.506;10.400;2023-03-26T01:49:06;97337.78;;;5.78;86.09
9423;BME280;65863;49.506;10.400;2023-03-26T01:51:56;97359.66;;;6.01;86.01
9423;BME280;65863;49.506;10.400;2023-03-26T01:54:41;97329.53;;;5.99;86.07
9423;BME280;65863;49.506;10.400;2023-03-26T01:58:05;97322.25;;;5.96;85.82
9423;BME280;65863;49.506;10.400;2023-03-26T02:00:59;97346.97;;;6.27;86.11
9423;BME280;65863;49.506;10.400;2023-03-26T02:06:53;97344.50;;;6.23;85.22
9423;BME280;65863;49.506;10.400;2023-03-26T02:09:45;97329.00;;;6.14;84.91
9423;BME280;65863;49.506;10.400;2023-03-26T02:12:33;97339.72;;;6.10;84.70
9423;BME280;65863;49.506;10.400;2023-03-26T02:15:18;97305.88;;;5.79;84.25
9423;BME280;65863;49.506;10.400;2023-03-26T02:18:02;97323.97;;;5.86;84.02
9423;BME280;65863;49.506;10.400;2023-03-26T02:20:47;97317.03;;;5.79;84.26
9423;BME280;65863;49.506;10.400;2023-03-26T02:23:32;97330.72;;;5.91;84.00
9423;BME280;65863;49.506;10.400;2023-03-26T02:26:19;97316.94;;;5.72;83.83
9423;BME280;65863;49.506;10.400;2023-03-26T02:29:29;97306.00;;;5.60;83.77
9423;BME280;65863;49.506;10.400;2023-03-26T02:32:14;97308.25;;;5.62;84.18
9423;BME280;65863;49.506;10.400;2023-03-26T02:34:58;97307.41;;;5.54;83.85
9423;BME280;65863;49.506;10.400;2023-03-26T02:37:43;97319.94;;;5.60;84.19
9423;BME280;65863;49.506;10.400;2023-03-26T02:40:33;97323.25;;;5.59;84.42
9423;BME280;65863;49.506;10.400;2023-03-26T02:43:17;97293.91;;;5.31;84.38
9423;BME280;65863;49.506;10.400;2023-03-26T02:46:01;97313.28;;;5.37;84.79
9423;BME280;65863;49.506;10.400;2023-03-26T02:49:04;97285.78;;;5.20;85.17
9423;BME280;65863;49.506;10.400;2023-03-26T02:51:49;97302.16;;;5.23;85.52
9423;BME280;65863;49.506;10.400;2023-03-26T02:54:41;97282.88;;;5.12;85.78
9423;BME280;65863;49.506;10.400;2023-03-26T02:57:40;97288.69;;;5.27;86.08
9423;BME280;65863;49.506;10.400;2023-03-26T03:00:37;97275.50;;;5.28;86.47
9423;BME280;65863;49.506;10.400;2023-03-26T03:03:51;97271.56;;;5.23;86.77
9423;BME280;65863;49.506;10.400;2023-03-26T03:06:52;97274.97;;;5.29;87.03
9423;BME280;65863;49.506;10.400;2023-03-26T03:09:40;97253.25;;;5.28;87.50
9423;BME280;65863;49.506;10.400;2023-03-26T03:12:57;97273.47;;;5.28;87.54
9423;BME280;65863;49.506;10.400;2023-03-26T03:15:41;97255.81;;;5.12;87.83
9423;BME280;65863;49.506;10.400;2023-03-26T03:18:25;97283.53;;;5.31;88.12
9423;BME280;65863;49.506;10.400;2023-03-26T03:21:09;97261.16;;;5.10;87.80
9423;BME280;65863;49.506;10.400;2023-03-26T03:23:54;97248.19;;;4.99;88.23
9423;BME280;65863;49.506;10.400;2023-03-26T03:26:39;97242.22;;;4.95;88.17
9423;BME280;65863;49.506;10.400;2023-03-26T03:29:36;97253.53;;;4.97;88.44
9423;BME280;65863;49.506;10.400;2023-03-26T03:32:39;97248.06;;;4.92;88.42
9423;BME280;65863;49.506;10.400;2023-03-26T03:35:25;97271.00;;;5.11;88.70
9423;BME280;65863;49.506;10.400;2023-03-26T03:38:15;97268.66;;;5.02;88.85
9423;BME280;65863;49.506;10.400;2023-03-26T03:41:06;97256.75;;;5.02;89.13
9423;BME280;65863;49.506;10.400;2023-03-26T03:43:52;97249.03;;;4.94;89.09
9423;BME280;65863;49.506;10.400;2023-03-26T03:46:43;97250.44;;;4.88;89.01
9423;BME280;65863;49.506;10.400;2023-03-26T03:49:27;97260.94;;;4.95;89.31
9423;BME280;65863;49.506;10.400;2023-03-26T03:52:13;97254.59;;;4.94;89.39
9423;BME280;65863;49.506;10.400;2023-03-26T03:55:00;97275.19;;;5.05;89.22
9423;BME280;65863;49.506;10.400;2023-03-26T03:57:59;97271.72;;;4.98;89.49
9423;BME280;65863;49.506;10.400;2023-03-26T04:00:44;97273.97;;;5.00;89.62
9423;BME280;65863;49.506;10.400;2023-03-26T04:04:00;97241.53;;;4.76;89.38
9423;BME280;65863;49.506;10.400;2023-03-26T04:06:58;97231.28;;;4.71;89.60
9423;BME280;65863;49.506;10.400;2023-03-26T04:09:46;97234.56;;;4.69;89.62
9423;BME280;65863;49.506;10.400;2023-03-26T04:12:34;97272.06;;;4.95;90.07
9423;BME280;65863;49.506;10.400;2023-03-26T04:15:20;97250.75;;;4.84;90.33
9423;BME280;65863;49.506;10.400;2023-03-26T04:18:05;97259.84;;;4.85;90.06
9423;BME280;65863;49.506;10.400;2023-03-26T04:21:00;97199.44;;;4.39;89.96
9423;BME280;65863;49.506;10.400;2023-03-26T04:23:46;97232.75;;;4.58;90.05
9423;BME280;65863;49.506;10.400;2023-03-26T04:26:56;97236.31;;;4.72;90.39
9423;BME280;65863;49.506;10.400;2023-03-26T04:29:50;97230.94;;;4.74;90.51
9423;BME280;65863;49.506;10.400;2023-03-26T04:32:38;97223.44;;;4.69;90.84
9423;BME280;65863;49.506;10.400;2023-03-26T04:35:23;97246.78;;;4.79;90.82
9423;BME280;65863;49.506;10.400;2023-03-26T04:38:11;97223.03;;;4.65;90.55
9423;BME280;65863;49.506;10.400;2023-03-26T04:41:01;97234.56;;;4.69;90.47
9423;BME280;65863;49.506;10.400;2023-03-26T04:44:04;97212.84;;;4.54;91.06
9423;BME280;65863;49.506;10.400;2023-03-26T04:47:14;97241.63;;;4.70;91.07
9423;BME280;65863;49.506;10.400;2023-03-26T04:50:04;97216.59;;;4.57;90.91
9423;BME280;65863;49.506;10.400;2023-03-26T04:52:51;97197.78;;;4.50;91.10
9423;BME280;65863;49.506;10.400;2023-03-26T04:55:59;97186.16;;;4.32;91.01
9423;BME280;65863;49.506;10.400;2023-03-26T04:59:13;97178.84;;;4.48;91.22
9423;BME280;65863;49.506;10.400;2023-03-26T05:02:03;97209.78;;;4.71;91.17
9423;BME280;65863;49.506;10.400;2023-03-26T05:04:52;97169.22;;;4.49;91.17
9423;BME280;65863;49.506;10.400;2023-03-26T05:07:37;97166.56;;;4.57;91.01
9423;BME280;65863;49.506;10.400;2023-03-26T05:10:21;97161.00;;;4.57;91.17
9423;BME280;65863;49.506;10.400;2023-03-26T05:13:13;97155.66;;;4.59;90.79
9423;BME280;65863;49.506;10.400;2023-03-26T05:16:04;97150.97;;;4.54;90.71
9423;BME280;65863;49.506;10.400;2023-03-26T05:19:08;97136.84;;;4.52;90.63
9423;BME280;65863;49.506;10.400;2023-03-26T05:21:52;97138.44;;;4.47;90.50
9423;BME280;65863;49.506;10.400;2023-03-26T05:24:36;97130.19;;;4.55;90.63
9423;BME280;65863;49.506;10.400;2023-03-26T05:27:21;97130.44;;;4.57;90.61
9423;BME280;65863;49.506;10.400;2023-03-26T05:30:07;97140.69;;;4.62;90.80
9423;BME280;65863;49.506;10.400;2023-03-26T05:32:59;97121.88;;;4.68;90.97
9423;BME280;65863;49.506;10.400;2023-03-26T05:35:59;97122.28;;;4.86;91.02
9423;BME280;65863;49.506;10.400;2023-03-26T05:38:44;97096.31;;;4.70;90.97
9423;BME280;65863;49.506;10.400;2023-03-26T05:41:46;97099.09;;;4.83;90.94
9423;BME280;65863;49.506;10.400;2023-03-26T05:44:30;97026.09;;;4.42;90.88
9423;BME280;65863;49.506;10.400;2023-03-26T05:47:18;97088.06;;;4.91;90.94
9423;BME280;65863;49.506;10.400;2023-03-26T05:50:03;97089.53;;;4.92;90.94
9423;BME280;65863;49.506;10.400;2023-03-26T05:52:47;97065.47;;;4.94;90.96
9423;BME280;65863;49.506;10.400;2023-03-26T05:55:57;97073.28;;;5.09;90.93
9423;BME280;65863;49.506;10.400;2023-03-26T05:59:00;97073.47;;;5.11;90.97
9423;BME280;65863;49.506;10.400;2023-03-26T06:02:05;97081.81;;;5.25;90.68
9423;BME280;65863;49.506;10.400;2023-03-26T06:05:15;97071.09;;;5.29;90.58
9423;BME280;65863;49.506;10.400;2023-03-26T06:08:18;97052.28;;;5.43;90.71
9423;BME280;65863;49.506;10.400;2023-03-26T06:11:07;97053.78;;;5.44;90.38
9423;BME280;65863;49.506;10.400;2023-03-26T06:13:55;97037.78;;;5.58;90.10
9423;BME280;65863;49.506;10.400;2023-03-26T06:16:39;97034.38;;;5.73;90.17
9423;BME280;65863;49.506;10.400;2023-03-26T06:19:30;97044.50;;;5.83;90.18
9423;BME280;65863;49.506;10.400;2023-03-26T06:22:20;97048.50;;;5.96;89.72
9423;BME280;65863;49.506;10.400;2023-03-26T06:25:28;97043.25;;;6.13;89.32
9423;BME280;65863;49.506;10.400;2023-03-26T06:28:22;97027.25;;;6.06;89.02
9423;BME280;65863;49.506;10.400;2023-03-26T06:31:09;97051.00;;;6.28;88.75
9423;BME280;65863;49.506;10.400;2023-03-26T06:33:57;97056.84;;;6.46;88.68
9423;BME280;65863;49.506;10.400;2023-03-26T06:36:42;97024.50;;;6.43;88.26
9423;BME280;65863;49.506;10.400;2023-03-26T06:39:26;97043.75;;;6.62;88.19
9423;BME280;65863;49.506;10.400;2023-03-26T06:42:24;97031.47;;;6.65;87.61
9423;BME280;65863;49.506;10.400;2023-03-26T06:45:28;97019.09;;;6.74;87.17
9423;BME280;65863;49.506;10.400;2023-03-26T06:48:33;97032.16;;;6.86;86.79
9423;BME280;65863;49.506;10.400;2023-03-26T06:51:36;97031.63;;;6.96;86.08
9423;BME280;65863;49.506;10.400;2023-03-26T06:54:54;97018.59;;;6.91;85.70
9423;BME280;65863;49.506;10.400;2023-03-26T06:57:57;97022.16;;;6.99;85.09
9423;BME280;65863;49.506;10.400;2023-03-26T07:01:00;97027.38;;;6.95;84.86
9423;BME280;65863;49.506;10.400;2023-03-26T07:04:03;97004.97;;;6.79;84.22
9423;BME280;65863;49.506;10.400;2023-03-26T07:07:06;96997.13;;;6.70;83.83
9423;BME280;65863;49.506;10.400;2023-03-26T07:10:13;97012.25;;;6.90;83.41
9423;BME280;65863;49.506;10.400;2023-03-26T07:13:18;97037.81;;;7.02;83.02
9423;BME280;65863;49.506;10.400;2023-03-26T07:16:40;97000.03;;;7.01;83.17
9423;BME280;65863;49.506;10.400;2023-03-26T07:19:38;96987.91;;;6.91;82.16
9423;BME280;65863;49.506;10.400;2023-03-26T07:22:23;97022.41;;;7.24;82.30
9423;BME280;65863;49.506;10.400;2023-03-26T07:25:27;96997.28;;;7.24;81.87
9423;BME280;65863;49.506;10.400;2023-03-26T07:28:30;97001.06;;;7.42;81.49
9423;BME280;65863;49.506;10.400;2023-03-26T07:35:12;96991.31;;;7.12;80.37
9423;BME280;65863;49.506;10.400;2023-03-26T07:38:43;96959.72;;;7.17;81.38
9423;BME280;65863;49.506;10.400;2023-03-26T07:41:50;96987.66;;;7.48;81.25
9423;BME280;65863;49.506;10.400;2023-03-26T07:45:09;96980.59;;;7.63;81.31
9423;BME280;65863;49.506;10.400;2023-03-26T07:48:01;96956.00;;;7.53;80.90
9423;BME280;65863;49.506;10.400;2023-03-26T07:51:02;96966.63;;;7.70;80.77
9423;BME280;65863;49.506;10.400;2023-03-26T07:54:16;96944.09;;;7.53;80.03
9423;BME280;65863;49.506;10.400;2023-03-26T07:57:48;96965.69;;;7.91;79.67
9423;BME280;65863;49.506;10.400;2023-03-26T08:00:52;96949.50;;;7.74;79.58
9423;BME280;65863;49.506;10.400;2023-03-26T08:07:50;96949.09;;;7.93;79.74
9423;BME280;65863;49.506;10.400;2023-03-26T08:11:15;96943.88;;;7.89;79.05
9423;BME280;65863;49.506;10.400;2023-03-26T08:17:34;96930.88;;;7.38;80.05
9423;BME280;65863;49.506;10.400;2023-03-26T08:20:37;96919.88;;;7.32;80.83
9423;BME280;65863;49.506;10.400;2023-03-26T08:23:57;96911.88;;;7.44;81.78
9423;BME280;65863;49.506;10.400;2023-03-26T08:30:24;96905.75;;;7.22;82.78
9423;BME280;65863;49.506;10.400;2023-03-26T08:33:12;96911.34;;;7.30;83.61
9423;BME280;65863;49.506;10.400;2023-03-26T08:35:59;96890.47;;;7.08;83.78
9423;BME280;65863;49.506;10.400;2023-03-26T08:38:43;96895.69;;;7.19;83.92
9423;BME280;65863;49.506;10.400;2023-03-26T08:48:32;96897.00;;;7.34;85.02
9423;BME280;65863;49.506;10.400;2023-03-26T08:51:03;96905.94;;;7.40;84.80
9423;BME280;65863;49.506;10.400;2023-03-26T08:54:11;96903.72;;;7.46;85.16
9423;BME280;65863;49.506;10.400;2023-03-26T09:01:02;96892.34;;;7.21;85.29
9423;BME280;65863;49.506;10.400;2023-03-26T09:03:42;96866.09;;;7.09;86.43
9423;BME280;65863;49.506;10.400;2023-03-26T09:15:49;96888.59;;;7.03;86.98
9423;BME280;65863;49.506;10.400;2023-03-26T09:25:00;96879.31;;;7.00;87.75
9423;BME280;65863;49.506;10.400;2023-03-26T09:31:41;96874.31;;;7.22;88.37
9423;BME280;65863;49.506;10.400;2023-03-26T09:34:43;96876.34;;;7.06;88.59
9423;BME280;65863;49.506;10.400;2023-03-26T09:37:46;96824.25;;;6.78;88.85
9423;BME280;65863;49.506;10.400;2023-03-26T09:40:37;96873.53;;;7.21;88.51
9423;BME280;65863;49.506;10.400;2023-03-26T09:50:10;96868.16;;;7.23;87.98
9423;BME280;65863;49.506;10.400;2023-03-26T09:56:37;96837.66;;;6.95;87.52
9423;BME280;65863;49.506;10.400;2023-03-26T10:09:09;96828.34;;;6.92;88.15
9423;BME280;65863;49.506;10.400;2023-03-26T10:12:18;96846.56;;;7.24;88.74
9423;BME280;65863;49.506;10.400;2023-03-26T10:15:30;96843.03;;;7.08;88.67
9423;BME280;65863;49.506;10.400;2023-03-26T10:18:43;96839.50;;;7.00;88.69
9423;BME280;65863;49.506;10.400;2023-03-26T10:27:42;96802.28;;;6.82;88.92
9423;BME280;65863;49.506;10.400;2023-03-26T10:30:54;96835.03;;;6.97;88.82
9423;BME280;65863;49.506;10.400;2023-03-26T10:33:56;96821.06;;;7.04;89.08
9423;BME280;65863;49.506;10.400;2023-03-26T10:37:03;96824.06;;;7.06;88.74
9423;BME280;65863;49.506;10.400;2023-03-26T10:45:56;96790.94;;;7.11;88.79
9423;BME280;65863;49.506;10.400;2023-03-26T10:52:05;96781.09;;;7.17;88.66
9423;BME280;65863;49.506;10.400;2023-03-26T10:55:01;96758.78;;;7.02;87.67
9423;BME280;65863;49.506;10.400;2023-03-26T10:58:22;96796.91;;;7.15;87.03
9423;BME280;65863;49.506;10.400;2023-03-26T11:01:14;96760.25;;;7.03;86.26
9423;BME280;65863;49.506;10.400;2023-03-26T11:07:23;96788.72;;;6.94;85.82
9423;BME280;65863;49.506;10.400;2023-03-26T11:10:16;96765.13;;;6.79;85.73
9423;BME280;65863;49.506;10.400;2023-03-26T11:19:34;96748.00;;;6.75;85.95
9423;BME280;65863;49.506;10.400;2023-03-26T11:25:56;96778.09;;;7.15;86.92
9423;BME280;65863;49.506;10.400;2023-03-26T11:32:05;96782.16;;;7.30;86.79
9423;BME280;65863;49.506;10.400;2023-03-26T11:35:06;96777.53;;;7.40;87.16
9423;BME280;65863;49.506;10.400;2023-03-26T11:37:57;96773.22;;;7.39;87.00
9423;BME280;65863;49.506;10.400;2023-03-26T11:40:46;96766.34;;;7.40;86.89
9423;BME280;65863;49.506;10.400;2023-03-26T11:44:25;96752.56;;;7.42;86.56
9423;BME280;65863;49.506;10.400;2023-03-26T11:47:14;96749.13;;;7.67;86.46
9423;BME280;65863;49.506;10.400;2023-03-26T11:50:02;96785.25;;;8.13;86.31
9423;BME280;65863;49.506;10.400;2023-03-26T11:52:50;96732.66;;;7.86;85.97
9423;BME280;65863;49.506;10.400;2023-03-26T11:55:34;96760.91;;;8.39;86.13
9423;BME280;65863;49.506;10.400;2023-03-26T11:58:30;96758.50;;;9.11;85.88
9423;BME280;65863;49.506;10.400;2023-03-26T12:01:20;96727.25;;;9.40;85.23
9423;BME280;65863;49.506;10.400;2023-03-26T12:04:14;96739.75;;;9.91;83.89
9423;BME280;65863;49.506;10.400;2023-03-26T12:07:14;96726.63;;;10.21;81.91
9423;BME280;65863;49.506;10.400;2023-03-26T12:10:06;96730.50;;;10.53;80.54
9423;BME280;65863;49.506;10.400;2023-03-26T12:12:53;96736.91;;;10.63;78.67
9423;BME280;65863;49.506;10.400;2023-03-26T12:15:42;96709.97;;;10.23;77.02
9423;BME280;65863;49.506;10.400;2023-03-26T12:18:27;96706.41;;;10.50;76.36
9423;BME280;65863;49.506;10.400;2023-03-26T12:21:16;96687.63;;;10.90;76.17
9423;BME280;65863;49.506;10.400;2023-03-26T12:24:03;96676.09;;;10.85;74.43
9423;BME280;65863;49.506;10.400;2023-03-26T12:26:56;96700.97;;;11.28;72.99
9423;BME280;65863;49.506;10.400;2023-03-26T12:29:40;96700.41;;;11.59;71.54
9423;BME280;65863;49.506;10.400;2023-03-26T12:32:32;96685.03;;;11.60;70.09
9423;BME280;65863;49.506;10.400;2023-03-26T12:35:22;96695.63;;;12.11;69.23
9423;BME280;65863;49.506;10.400;2023-03-26T12:38:33;96678.91;;;11.83;67.77
9423;BME280;65863;49.506;10.400;2023-03-26T12:41:19;96682.69;;;11.47;67.09
9423;BME280;65863;49.506;10.400;2023-03-26T12:44:21;96663.16;;;11.49;67.26
9423;BME280;65863;49.506;10.400;2023-03-26T12:47:20;96658.09;;;10.98;66.46
9423;BME280;65863;49.506;10.400;2023-03-26T12:50:05;96672.44;;;11.12;66.26
9423;BME280;65863;49.506;10.400;2023-03-26T12:53:00;96680.41;;;10.96;65.03
9423;BME280;65863;49.506;10.400;2023-03-26T12:59:08;96674.66;;;10.38;65.92
9423;BME280;65863;49.506;10.400;2023-03-26T13:04:57;96674.91;;;10.05;68.36
9423;BME280;65863;49.506;10.400;2023-03-26T13:08:16;96681.63;;;9.92;69.53
9423;BME280;65863;49.506;10.400;2023-03-26T13:14:32;96703.34;;;9.21;74.15
9423;BME280;65863;49.506;10.400;2023-03-26T13:17:41;96706.25;;;8.71;77.68
9423;BME280;65863;49.506;10.400;2023-03-26T13:23:51;96687.50;;;8.64;82.43
9423;BME280;65863;49.506;10.400;2023-03-26T13:29:37;96690.09;;;9.04;84.13
9423;BME280;65863;49.506;10.400;2023-03-26T13:33:02;96646.16;;;9.59;84.34
9423;BME280;65863;49.506;10.400;2023-03-26T13:36:09;96666.78;;;10.36;83.13
9423;BME280;65863;49.506;10.400;2023-03-26T13:42:20;96650.72;;;10.93;80.25
9423;BME280;65863;49.506;10.400;2023-03-26T13:47:57;96638.63;;;11.20;77.17
9423;BME280;65863;49.506;10.400;2023-03-26T13:50:45;96615.69;;;11.24;76.25
9423;BME280;65863;49.506;10.400;2023-03-26T13:57:17;96634.13;;;11.66;73.48
9423;BME280;65863;49.506;10.400;2023-03-26T14:00:10;96619.72;;;12.01;73.48
9423;BME280;65863;49.506;10.400;2023-03-26T14:03:06;96589.19;;;11.46;71.93
9423;BME280;65863;49.506;10.400;2023-03-26T14:05:55;96601.13;;;11.66;71.05
9423;BME280;65863;49.506;10.400;2023-03-26T14:08:44;96603.47;;;11.99;70.34
9423;BME280;65863;49.506;10.400;2023-03-26T14:14:51;96598.44;;;12.29;67.12
9423;BME280;65863;49.506;10.400;2023-03-26T14:17:41;96585.72;;;12.28;65.17
9423;BME280;65863;49.506;10.400;2023-03-26T14:45:51;96570.28;;;12.82;54.17
9423;BME280;65863;49.506;10.400;2023-03-26T14:54:54;96474.44;;;11.01;53.71
9423;BME280;65863;49.506;10.400;2023-03-26T15:03:33;96560.25;;;11.95;52.02
9423;BME280;65863;49.506;10.400;2023-03-26T15:06:55;96545.50;;;12.16;52.40
9423;BME280;65863;49.506;10.400;2023-03-26T15:10:09;96564.16;;;12.43;52.52
9423;BME280;65863;49.506;10.400;2023-03-26T15:23:02;96563.88;;;12.38;50.72
9423;BME280;65863;49.506;10.400;2023-03-26T15:29:01;96546.00;;;12.34;49.52
9423;BME280;65863;49.506;10.400;2023-03-26T15:34:53;96563.56;;;12.13;49.70
9423;BME280;65863;49.506;10.400;2023-03-26T15:46:58;96555.69;;;11.19;51.20
9423;BME280;65863;49.506;10.400;2023-03-26T15:50:00;96510.66;;;10.78;52.27
9423;BME280;65863;49.506;10.400;2023-03-26T15:53:04;96547.13;;;10.97;53.00
9423;BME280;65863;49.506;10.400;2023-03-26T16:04:57;96504.38;;;10.30;55.21
9423;BME280;65863;49.506;10.400;2023-03-26T16:11:09;96515.88;;;10.25;56.42
9423;BME280;65863;49.506;10.400;2023-03-26T16:14:16;96545.63;;;10.47;56.24
9423;BME280;65863;49.506;10.400;2023-03-26T16:17:03;96522.56;;;10.29;56.68
9423;BME280;65863;49.506;10.400;2023-03-26T16:26:51;96541.44;;;10.29;58.55
9423;BME280;65863;49.506;10.400;2023-03-26T16:30:14;96532.84;;;10.17;59.33
9423;BME280;65863;49.506;10.400;2023-03-26T16:33:10;96525.00;;;10.06;59.92
9423;BME280;65863;49.506;10.400;2023-03-26T16:36:04;96522.47;;;10.00;60.19
9423;BME280;65863;49.506;10.400;2023-03-26T16:38:53;96539.78;;;10.16;60.72
9423;BME280;65863;49.506;10.400;2023-03-26T16:50:53;96556.88;;;9.73;62.16
9423;BME280;65863;49.506;10.400;2023-03-26T16:53:46;96545.66;;;9.36;62.77
9423;BME280;65863;49.506;10.400;2023-03-26T16:59:35;96560.56;;;9.21;63.28
9423;BME280;65863;49.506;10.400;2023-03-26T17:02:34;96571.22;;;9.23;63.49
9423;BME280;65863;49.506;10.400;2023-03-26T17:05:32;96587.63;;;9.09;63.80
9423;BME280;65863;49.506;10.400;2023-03-26T17:08:30;96563.84;;;8.65;64.22
9423;BME280;65863;49.506;10.400;2023-03-26T17:14:52;96609.91;;;8.64;65.50
9423;BME280;65863;49.506;10.400;2023-03-26T17:17:48;96585.44;;;8.47;66.12
9423;BME280;65863;49.506;10.400;2023-03-26T17:20:41;96632.03;;;8.70;67.07
9423;BME280;65863;49.506;10.400;2023-03-26T17:38:59;96647.34;;;7.93;71.41
9423;BME280;65863;49.506;10.400;2023-03-26T17:42:47;96653.13;;;7.87;71.85
9423;BME280;65863;49.506;10.400;2023-03-26T17:45:15;96650.06;;;7.75;72.58
9423;BME280;65863;49.506;10.400;2023-03-26T17:48:14;96618.03;;;7.36;73.58
9423;BME280;65863;49.506;10.400;2023-03-26T17:51:26;96654.84;;;7.42;74.35
9423;BME280;65863;49.506;10.400;2023-03-26T17:54:26;96652.84;;;7.35;74.92
9423;BME280;65863;49.506;10.400;2023-03-26T17:57:20;96667.31;;;7.41;75.68
9423;BME280;65863;49.506;10.400;2023-03-26T18:00:05;96636.56;;;7.08;75.78
9423;BME280;65863;49.506;10.400;2023-03-26T18:02:57;96654.19;;;7.18;76.18
9423;BME280;65863;49.506;10.400;2023-03-26T18:05:44;96674.84;;;7.15;76.28
9423;BME280;65863;49.506;10.400;2023-03-26T18:12:16;96678.03;;;7.04;76.84
9423;BME280;65863;49.506;10.400;2023-03-26T18:18:33;96641.25;;;6.75;77.19
9423;BME280;65863;49.506;10.400;2023-03-26T18:21:35;96657.25;;;6.89;77.67
9423;BME280;65863;49.506;10.400;2023-03-26T18:24:24;96662.81;;;6.89;78.02
9423;BME280;65863;49.506;10.400;2023-03-26T18:27:12;96695.38;;;6.87;77.97
9423;BME280;65863;49.506;10.400;2023-03-26T18:30:00;96678.44;;;6.77;78.69
9423;BME280;65863;49.506;10.400;2023-03-26T18:33:29;96662.47;;;6.54;78.78
9423;BME280;65863;49.506;10.400;2023-03-26T18:35:54;96680.53;;;6.61;79.16
9423;BME280;65863;49.506;10.400;2023-03-26T18:38:39;96677.38;;;6.49;79.98
9423;BME280;65863;49.506;10.400;2023-03-26T18:41:32;96677.16;;;6.47;79.91
9423;BME280;65863;49.506;10.400;2023-03-26T18:44:17;96674.75;;;6.51;80.01
9423;BME280;65863;49.506;10.400;2023-03-26T18:47:05;96697.59;;;6.58;80.32
9423;BME280;65863;49.506;10.400;2023-03-26T18:49:53;96684.25;;;6.48;80.51
9423;BME280;65863;49.506;10.400;2023-03-26T18:52:38;96697.06;;;6.51;80.87
9423;BME280;65863;49.506;10.400;2023-03-26T18:55:25;96657.66;;;6.16;80.72
9423;BME280;65863;49.506;10.400;2023-03-26T18:58:33;96693.34;;;6.41;80.75
9423;BME280;65863;49.506;10.400;2023-03-26T19:01:20;96697.06;;;6.44;81.38
9423;BME280;65863;49.506;10.400;2023-03-26T19:04:05;96710.44;;;6.45;81.67
9423;BME280;65863;49.506;10.400;2023-03-26T19:06:50;96642.06;;;6.06;81.78
9423;BME280;65863;49.506;10.400;2023-03-26T19:09:39;96679.22;;;6.31;81.92
9423;BME280;65863;49.506;10.400;2023-03-26T19:12:29;96693.72;;;6.45;82.15
9423;BME280;65863;49.506;10.400;2023-03-26T19:15:17;96654.69;;;6.22;82.04
9423;BME280;65863;49.506;10.400;2023-03-26T19:18:05;96696.69;;;6.40;82.10
9423;BME280;65863;49.506;10.400;2023-03-26T19:20:59;96686.09;;;6.46;81.90
9423;BME280;65863;49.506;10.400;2023-03-26T19:23:45;96656.34;;;6.17;81.76
9423;BME280;65863;49.506;10.400;2023-03-26T19:26:30;96657.47;;;6.14;81.72
9423;BME280;65863;49.506;10.400;2023-03-26T19:29:31;96681.28;;;6.31;81.94
9423;BME280;65863;49.506;10.400;2023-03-26T19:32:27;96661.16;;;6.09;82.00
9423;BME280;65863;49.506;10.400;2023-03-26T19:35:21;96646.88;;;6.05;82.07
9423;BME280;65863;49.506;10.400;2023-03-26T19:38:25;96680.69;;;6.25;82.59
9423;BME280;65863;49.506;10.400;2023-03-26T19:41:42;96642.03;;;5.98;82.41
9423;BME280;65863;49.506;10.400;2023-03-26T19:44:29;96652.81;;;6.01;82.77
9423;BME280;65863;49.506;10.400;2023-03-26T19:47:22;96671.56;;;6.16;82.73
9423;BME280;65863;49.506;10.400;2023-03-26T19:53:18;96672.53;;;6.11;83.32